sensor_id;sensor_type;location;lat;lon;timestamp;pressure;altitude;pressure_sealevel;temperature;humidity
70343;BME280;57767;42.068;24.752;2023-02-04T00:00:38;98803.38;;;4.01;45.90
70343;BME280;57767;42.068;24.752;2023-02-04T00:01:41;98798.13;;;3.93;46.25
70343;BME280;57767;42.068;24.752;2023-02-04T00:02:43;98802.91;;;3.89;44.72
70343;BME280;57767;42.068;24.752;2023-02-04T00:03:45;98788.53;;;3.85;43.61
70343;BME280;57767;42.068;24.752;2023-02-04T00:04:47;98795.72;;;3.91;43.94
70343;BME280;57767;42.068;24.752;2023-02-04T00:05:48;98792.25;;;3.99;44.13
70343;BME280;57767;42.068;24.752;2023-02-04T00:06:50;98790.25;;;4.09;44.14
70343;BME280;57767;42.068;24.752;2023-02-04T00:07:52;98783.06;;;4.11;44.96
70343;BME280;57767;42.068;24.752;2023-02-04T00:08:54;98779.31;;;4.14;45.08
70343;BME280;57767;42.068;24.752;2023-02-04T00:09:55;98791.03;;;4.26;45.49
70343;BME280;57767;42.068;24.752;2023-02-04T00:10:57;98772.78;;;4.18;45.08
70343;BME280;57767;42.068;24.752;2023-02-04T00:11:59;98786.91;;;4.31;43.68
70343;BME280;57767;42.068;24.752;2023-02-04T00:13:01;98783.81;;;4.36;43.82
70343;BME280;57767;42.068;24.752;2023-02-04T00:14:03;98787.22;;;4.37;43.62
70343;BME280;57767;42.068;24.752;2023-02-04T00:15:05;98781.34;;;4.35;43.16
70343;BME280;57767;42.068;24.752;2023-02-04T00:16:07;98774.84;;;4.30;44.14
70343;BME280;57767;42.068;24.752;2023-02-04T00:17:09;98773.88;;;4.23;43.78
70343;BME280;57767;42.068;24.752;2023-02-04T00:18:13;98766.41;;;4.12;42.75
70343;BME280;57767;42.068;24.752;2023-02-04T00:19:15;98767.72;;;4.16;42.68
70343;BME280;57767;42.068;24.752;2023-02-04T00:20:17;98773.41;;;4.20;43.88
70343;BME280;57767;42.068;24.752;2023-02-04T00:21:20;98775.34;;;4.26;44.42
70343;BME280;57767;42.068;24.752;2023-02-04T00:22:21;98758.72;;;4.19;44.40
70343;BME280;57767;42.068;24.752;2023-02-04T00:23:23;98777.28;;;4.32;43.59
70343;BME280;57767;42.068;24.752;2023-02-04T00:24:25;98767.81;;;4.31;43.87
70343;BME280;57767;42.068;24.752;2023-02-04T00:25:27;98778.06;;;4.41;45.03
70343;BME280;57767;42.068;24.752;2023-02-04T00:26:28;98774.97;;;4.37;44.86
70343;BME280;57767;42.068;24.752;2023-02-04T00:27:30;98762.22;;;4.42;44.72
70343;BME280;57767;42.068;24.752;2023-02-04T00:28:32;98768.38;;;4.49;44.18
70343;BME280;57767;42.068;24.752;2023-02-04T00:29:34;98769.84;;;4.52;45.23
70343;BME280;57767;42.068;24.752;2023-02-04T00:30:35;98765.94;;;4.48;45.11
70343;BME280;57767;42.068;24.752;2023-02-04T00:31:37;98760.44;;;4.43;44.34
70343;BME280;57767;42.068;24.752;2023-02-04T00:32:39;98759.41;;;4.44;43.77
70343;BME280;57767;42.068;24.752;2023-02-04T00:33:41;98757.94;;;4.49;44.31
70343;BME280;57767;42.068;24.752;2023-02-04T00:34:44;98762.66;;;4.54;45.23
70343;BME280;57767;42.068;24.752;2023-02-04T00:35:46;98753.81;;;4.55;46.18
70343;BME280;57767;42.068;24.752;2023-02-04T00:36:47;98728.25;;;4.34;46.02
70343;BME280;57767;42.068;24.752;2023-02-04T00:37:50;98754.09;;;4.60;45.48
70343;BME280;57767;42.068;24.752;2023-02-04T00:38:52;98757.69;;;4.59;44.31
70343;BME280;57767;42.068;24.752;2023-02-04T00:39:53;98757.03;;;4.65;44.08
70343;BME280;57767;42.068;24.752;2023-02-04T00:40:55;98754.91;;;4.68;45.36
70343;BME280;57767;42.068;24.752;2023-02-04T00:41:57;98753.25;;;4.67;45.73
70343;BME280;57767;42.068;24.752;2023-02-04T00:42:59;98753.88;;;4.69;45.82
70343;BME280;57767;42.068;24.752;2023-02-04T00:44:00;98764.00;;;4.73;45.56
70343;BME280;57767;42.068;24.752;2023-02-04T00:45:02;98762.84;;;4.75;45.09
70343;BME280;57767;42.068;24.752;2023-02-04T00:46:04;98766.75;;;4.79;45.75
70343;BME280;57767;42.068;24.752;2023-02-04T00:47:06;98761.69;;;4.78;44.86
70343;BME280;57767;42.068;24.752;2023-02-04T00:48:08;98744.72;;;4.74;44.68
70343;BME280;57767;42.068;24.752;2023-02-04T00:49:09;98764.59;;;4.83;45.10
70343;BME280;57767;42.068;24.752;2023-02-04T00:50:11;98764.47;;;4.76;44.61
70343;BME280;57767;42.068;24.752;2023-02-04T00:51:13;98755.06;;;4.67;44.75
70343;BME280;57767;42.068;24.752;2023-02-04T00:52:15;98767.50;;;4.57;44.18
70343;BME280;57767;42.068;24.752;2023-02-04T00:53:17;98764.78;;;4.50;44.74
70343;BME280;57767;42.068;24.752;2023-02-04T00:54:18;98758.97;;;4.40;43.93
70343;BME280;57767;42.068;24.752;2023-02-04T00:55:20;98756.78;;;4.44;44.45
70343;BME280;57767;42.068;24.752;2023-02-04T00:56:22;98747.81;;;4.46;44.47
70343;BME280;57767;42.068;24.752;2023-02-04T00:57:23;98759.56;;;4.50;44.97
70343;BME280;57767;42.068;24.752;2023-02-04T00:58:25;98755.97;;;4.51;45.15
70343;BME280;57767;42.068;24.752;2023-02-04T00:59:27;98762.66;;;4.54;45.42
70343;BME280;57767;42.068;24.752;2023-02-04T01:00:29;98756.25;;;4.56;45.44
70343;BME280;57767;42.068;24.752;2023-02-04T01:01:31;98753.47;;;4.58;44.62
70343;BME280;57767;42.068;24.752;2023-02-04T01:02:33;98748.88;;;4.60;45.50
70343;BME280;57767;42.068;24.752;2023-02-04T01:03:35;98748.06;;;4.59;45.19
70343;BME280;57767;42.068;24.752;2023-02-04T01:04:37;98749.00;;;4.66;44.36
70343;BME280;57767;42.068;24.752;2023-02-04T01:05:38;98754.25;;;4.66;44.54
70343;BME280;57767;42.068;24.752;2023-02-04T01:06:40;98747.38;;;4.65;44.17
70343;BME280;57767;42.068;24.752;2023-02-04T01:07:42;98745.41;;;4.67;43.85
70343;BME280;57767;42.068;24.752;2023-02-04T01:08:43;98741.44;;;4.72;43.65
70343;BME280;57767;42.068;24.752;2023-02-04T01:09:45;98741.91;;;4.75;44.90
70343;BME280;57767;42.068;24.752;2023-02-04T01:10:47;98744.19;;;4.78;44.98
70343;BME280;57767;42.068;24.752;2023-02-04T01:11:49;98732.28;;;4.76;45.13
70343;BME280;57767;42.068;24.752;2023-02-04T01:12:50;98725.66;;;4.65;44.70
70343;BME280;57767;42.068;24.752;2023-02-04T01:13:52;98718.66;;;4.57;44.29
70343;BME280;57767;42.068;24.752;2023-02-04T01:14:54;98728.28;;;4.57;43.60
70343;BME280;57767;42.068;24.752;2023-02-04T01:15:56;98710.19;;;4.55;44.24
70343;BME280;57767;42.068;24.752;2023-02-04T01:16:58;98713.25;;;4.59;44.39
70343;BME280;57767;42.068;24.752;2023-02-04T01:17:59;98709.47;;;4.61;43.95
70343;BME280;57767;42.068;24.752;2023-02-04T01:19:01;98703.59;;;4.59;45.35
70343;BME280;57767;42.068;24.752;2023-02-04T01:20:03;98709.63;;;4.68;44.83
70343;BME280;57767;42.068;24.752;2023-02-04T01:21:05;98691.47;;;4.66;44.39
70343;BME280;57767;42.068;24.752;2023-02-04T01:22:07;98697.81;;;4.72;45.20
70343;BME280;57767;42.068;24.752;2023-02-04T01:23:08;98685.59;;;4.64;45.09
70343;BME280;57767;42.068;24.752;2023-02-04T01:24:10;98643.63;;;4.35;45.15
70343;BME280;57767;42.068;24.752;2023-02-04T01:25:12;98695.19;;;4.72;45.04
70343;BME280;57767;42.068;24.752;2023-02-04T01:26:15;98693.56;;;4.71;45.15
70343;BME280;57767;42.068;24.752;2023-02-04T01:27:16;98692.75;;;4.71;45.34
70343;BME280;57767;42.068;24.752;2023-02-04T01:28:18;98688.31;;;4.71;45.37
70343;BME280;57767;42.068;24.752;2023-02-04T01:29:20;98686.25;;;4.66;45.72
70343;BME280;57767;42.068;24.752;2023-02-04T01:30:22;98665.03;;;4.61;45.20
70343;BME280;57767;42.068;24.752;2023-02-04T01:31:24;98673.84;;;4.60;44.97
70343;BME280;57767;42.068;24.752;2023-02-04T01:32:26;98672.19;;;4.67;44.83
70343;BME280;57767;42.068;24.752;2023-02-04T01:33:27;98668.38;;;4.70;44.63
70343;BME280;57767;42.068;24.752;2023-02-04T01:34:29;98665.97;;;4.68;44.54
70343;BME280;57767;42.068;24.752;2023-02-04T01:35:32;98661.91;;;4.66;44.61
70343;BME280;57767;42.068;24.752;2023-02-04T01:36:34;98656.19;;;4.62;44.29
70343;BME280;57767;42.068;24.752;2023-02-04T01:37:35;98651.03;;;4.54;44.32
70343;BME280;57767;42.068;24.752;2023-02-04T01:38:37;98640.91;;;4.51;44.54
70343;BME280;57767;42.068;24.752;2023-02-04T01:39:39;98641.09;;;4.50;43.96
70343;BME280;57767;42.068;24.752;2023-02-04T01:40:41;98633.59;;;4.47;43.68
70343;BME280;57767;42.068;24.752;2023-02-04T01:41:43;98642.78;;;4.43;43.96
70343;BME280;57767;42.068;24.752;2023-02-04T01:42:45;98627.31;;;4.33;44.25
70343;BME280;57767;42.068;24.752;2023-02-04T01:43:47;98626.91;;;4.21;44.38
70343;BME280;57767;42.068;24.752;2023-02-04T01:44:49;98609.41;;;3.99;45.75
70343;BME280;57767;42.068;24.752;2023-02-04T01:45:52;98626.06;;;3.98;45.89
70343;BME280;57767;42.068;24.752;2023-02-04T01:46:54;98619.09;;;3.90;46.56
70343;BME280;57767;42.068;24.752;2023-02-04T01:47:56;98620.50;;;3.93;46.52
70343;BME280;57767;42.068;24.752;2023-02-04T01:48:58;98622.97;;;3.94;46.53
70343;BME280;57767;42.068;24.752;2023-02-04T01:50:00;98617.13;;;3.92;46.50
70343;BME280;57767;42.068;24.752;2023-02-04T01:51:05;98622.97;;;3.94;46.58
70343;BME280;57767;42.068;24.752;2023-02-04T01:52:09;98618.38;;;3.96;46.62
70343;BME280;57767;42.068;24.752;2023-02-04T01:53:11;98621.31;;;3.93;46.10
70343;BME280;57767;42.068;24.752;2023-02-04T01:54:14;98612.41;;;3.88;46.93
70343;BME280;57767;42.068;24.752;2023-02-04T01:55:19;98618.44;;;3.88;47.08
70343;BME280;57767;42.068;24.752;2023-02-04T01:56:24;98614.53;;;3.84;46.68
70343;BME280;57767;42.068;24.752;2023-02-04T01:57:36;98612.31;;;3.73;47.18
70343;BME280;57767;42.068;24.752;2023-02-04T01:58:38;98594.41;;;3.62;46.70
70343;BME280;57767;42.068;24.752;2023-02-04T01:59:42;98606.84;;;3.44;47.59
70343;BME280;57767;42.068;24.752;2023-02-04T02:00:45;98616.81;;;3.48;47.59
70343;BME280;57767;42.068;24.752;2023-02-04T02:01:51;98612.44;;;3.41;47.59
70343;BME280;57767;42.068;24.752;2023-02-04T02:02:53;98613.13;;;3.27;48.64
70343;BME280;57767;42.068;24.752;2023-02-04T02:03:55;98607.75;;;3.20;48.83
70343;BME280;57767;42.068;24.752;2023-02-04T02:04:57;98589.19;;;3.15;49.27
70343;BME280;57767;42.068;24.752;2023-02-04T02:05:58;98606.94;;;3.28;48.50
70343;BME280;57767;42.068;24.752;2023-02-04T02:07:02;98603.03;;;3.23;49.04
70343;BME280;57767;42.068;24.752;2023-02-04T02:08:06;98584.44;;;3.18;48.96
70343;BME280;57767;42.068;24.752;2023-02-04T02:09:08;98602.06;;;3.16;49.09
70343;BME280;57767;42.068;24.752;2023-02-04T02:10:11;98605.63;;;3.23;48.86
70343;BME280;57767;42.068;24.752;2023-02-04T02:11:13;98599.75;;;3.21;49.17
70343;BME280;57767;42.068;24.752;2023-02-04T02:12:15;98601.06;;;3.17;48.87
70343;BME280;57767;42.068;24.752;2023-02-04T02:13:18;98603.66;;;3.26;48.38
70343;BME280;57767;42.068;24.752;2023-02-04T02:14:20;98597.78;;;3.23;49.16
70343;BME280;57767;42.068;24.752;2023-02-04T02:15:23;98606.13;;;3.19;48.72
70343;BME280;57767;42.068;24.752;2023-02-04T02:16:25;98592.25;;;3.18;48.62
70343;BME280;57767;42.068;24.752;2023-02-04T02:17:27;98596.84;;;3.16;49.14
70343;BME280;57767;42.068;24.752;2023-02-04T02:18:29;98590.00;;;3.07;49.76
70343;BME280;57767;42.068;24.752;2023-02-04T02:19:35;98591.31;;;3.11;49.75
70343;BME280;57767;42.068;24.752;2023-02-04T02:20:38;98593.25;;;3.09;49.40
70343;BME280;57767;42.068;24.752;2023-02-04T02:24:33;98576.34;;;3.44;49.64
70343;BME280;57767;42.068;24.752;2023-02-04T02:25:35;98582.00;;;3.56;49.79
70343;BME280;57767;42.068;24.752;2023-02-04T02:26:37;98585.75;;;3.62;50.72
70343;BME280;57767;42.068;24.752;2023-02-04T02:27:39;98584.88;;;3.69;50.17
70343;BME280;57767;42.068;24.752;2023-02-04T02:28:42;98584.56;;;3.72;49.91
70343;BME280;57767;42.068;24.752;2023-02-04T02:29:44;98578.03;;;3.76;49.19
70343;BME280;57767;42.068;24.752;2023-02-04T02:30:46;98578.66;;;3.78;50.10
70343;BME280;57767;42.068;24.752;2023-02-04T02:31:50;98578.94;;;3.83;48.93
70343;BME280;57767;42.068;24.752;2023-02-04T02:32:52;98566.69;;;3.84;49.69
70343;BME280;57767;42.068;24.752;2023-02-04T02:33:54;98571.38;;;3.96;49.51
70343;BME280;57767;42.068;24.752;2023-02-04T02:34:56;98567.59;;;3.99;49.49
70343;BME280;57767;42.068;24.752;2023-02-04T02:35:58;98558.59;;;4.02;49.29
70343;BME280;57767;42.068;24.752;2023-02-04T02:37:01;98560.88;;;4.05;49.37
70343;BME280;57767;42.068;24.752;2023-02-04T02:38:03;98557.91;;;4.08;49.08
70343;BME280;57767;42.068;24.752;2023-02-04T02:39:05;98548.09;;;4.10;49.17
70343;BME280;57767;42.068;24.752;2023-02-04T02:40:08;98553.28;;;4.18;49.34
70343;BME280;57767;42.068;24.752;2023-02-04T02:41:10;98550.19;;;4.14;48.32
70343;BME280;57767;42.068;24.752;2023-02-04T02:42:14;98558.44;;;4.26;49.22
70343;BME280;57767;42.068;24.752;2023-02-04T02:43:20;98559.41;;;4.25;48.35
70343;BME280;57767;42.068;24.752;2023-02-04T02:44:24;98558.53;;;4.32;48.85
70343;BME280;57767;42.068;24.752;2023-02-04T02:45:29;98551.50;;;4.33;49.28
70343;BME280;57767;42.068;24.752;2023-02-04T02:46:31;98558.91;;;4.29;49.18
70343;BME280;57767;42.068;24.752;2023-02-04T02:47:33;98558.72;;;4.31;48.47
70343;BME280;57767;42.068;24.752;2023-02-04T02:48:35;98542.84;;;4.32;49.22
70343;BME280;57767;42.068;24.752;2023-02-04T02:49:37;98551.81;;;4.38;49.11
70343;BME280;57767;42.068;24.752;2023-02-04T02:50:41;98551.47;;;4.41;48.28
70343;BME280;57767;42.068;24.752;2023-02-04T02:51:44;98552.28;;;4.42;48.97
70343;BME280;57767;42.068;24.752;2023-02-04T02:52:46;98550.19;;;4.37;48.38
70343;BME280;57767;42.068;24.752;2023-02-04T02:53:48;98542.97;;;4.39;48.69
70343;BME280;57767;42.068;24.752;2023-02-04T02:54:50;98548.69;;;4.43;48.08
70343;BME280;57767;42.068;24.752;2023-02-04T02:55:54;98542.44;;;4.44;48.41
70343;BME280;57767;42.068;24.752;2023-02-04T02:56:57;98546.69;;;4.45;47.91
70343;BME280;57767;42.068;24.752;2023-02-04T02:57:59;98538.41;;;4.41;49.38
70343;BME280;57767;42.068;24.752;2023-02-04T02:59:15;98530.91;;;4.38;48.28
70343;BME280;57767;42.068;24.752;2023-02-04T03:00:18;98536.59;;;4.42;47.74
70343;BME280;57767;42.068;24.752;2023-02-04T03:01:20;98531.53;;;4.40;47.03
70343;BME280;57767;42.068;24.752;2023-02-04T03:02:22;98534.31;;;4.39;48.31
70343;BME280;57767;42.068;24.752;2023-02-04T03:03:29;98536.59;;;4.42;47.34
70343;BME280;57767;42.068;24.752;2023-02-04T03:04:37;98541.66;;;4.43;48.04
70343;BME280;57767;42.068;24.752;2023-02-04T03:05:42;98537.41;;;4.42;48.11
70343;BME280;57767;42.068;24.752;2023-02-04T03:06:45;98533.22;;;4.33;47.65
70343;BME280;57767;42.068;24.752;2023-02-04T03:07:47;98534.56;;;4.29;48.76
70343;BME280;57767;42.068;24.752;2023-02-04T03:08:50;98538.03;;;4.21;48.06
70343;BME280;57767;42.068;24.752;2023-02-04T03:09:55;98517.69;;;4.17;47.37
70343;BME280;57767;42.068;24.752;2023-02-04T03:10:57;98529.75;;;4.18;47.81
70343;BME280;57767;42.068;24.752;2023-02-04T03:11:59;98516.97;;;4.00;47.52
70343;BME280;57767;42.068;24.752;2023-02-04T03:13:01;98519.19;;;4.11;47.99
70343;BME280;57767;42.068;24.752;2023-02-04T03:14:04;98505.72;;;4.00;48.36
70343;BME280;57767;42.068;24.752;2023-02-04T03:15:06;98516.97;;;4.00;47.69
70343;BME280;57767;42.068;24.752;2023-02-04T03:16:08;98505.00;;;3.83;49.00
70343;BME280;57767;42.068;24.752;2023-02-04T03:17:10;98507.94;;;3.88;48.95
70343;BME280;57767;42.068;24.752;2023-02-04T03:18:14;98514.31;;;3.85;49.00
70343;BME280;57767;42.068;24.752;2023-02-04T03:19:16;98508.09;;;3.86;48.73
70343;BME280;57767;42.068;24.752;2023-02-04T03:20:18;98510.63;;;3.94;49.52
70343;BME280;57767;42.068;24.752;2023-02-04T03:21:20;98517.66;;;3.94;49.05
70343;BME280;57767;42.068;24.752;2023-02-04T03:22:22;98515.25;;;3.92;48.44
70343;BME280;57767;42.068;24.752;2023-02-04T03:23:24;98509.22;;;3.92;48.64
70343;BME280;57767;42.068;24.752;2023-02-04T03:24:27;98509.81;;;3.94;49.34
70343;BME280;57767;42.068;24.752;2023-02-04T03:25:29;98503.44;;;3.96;48.97
70343;BME280;57767;42.068;24.752;2023-02-04T03:26:31;98507.19;;;4.02;49.29
70343;BME280;57767;42.068;24.752;2023-02-04T03:27:33;98503.69;;;3.87;49.23
70343;BME280;57767;42.068;24.752;2023-02-04T03:28:39;98497.53;;;3.80;49.31
70343;BME280;57767;42.068;24.752;2023-02-04T03:29:44;98500.06;;;3.65;48.96
70343;BME280;57767;42.068;24.752;2023-02-04T03:30:46;98511.63;;;3.71;49.66
70343;BME280;57767;42.068;24.752;2023-02-04T03:31:54;98497.91;;;3.69;48.92
70343;BME280;57767;42.068;24.752;2023-02-04T03:32:56;98519.59;;;3.77;49.62
70343;BME280;57767;42.068;24.752;2023-02-04T03:33:58;98502.94;;;3.78;49.85
70343;BME280;57767;42.068;24.752;2023-02-04T03:35:00;98492.69;;;3.69;49.53
70343;BME280;57767;42.068;24.752;2023-02-04T03:36:02;98496.91;;;3.78;49.75
70343;BME280;57767;42.068;24.752;2023-02-04T03:37:04;98505.78;;;3.91;48.70
70343;BME280;57767;42.068;24.752;2023-02-04T03:38:05;98495.13;;;3.93;49.37
70343;BME280;57767;42.068;24.752;2023-02-04T03:39:07;98507.63;;;4.06;50.51
70343;BME280;57767;42.068;24.752;2023-02-04T03:40:10;98499.16;;;4.04;51.17
70343;BME280;57767;42.068;24.752;2023-02-04T03:41:12;98497.56;;;3.94;49.26
70343;BME280;57767;42.068;24.752;2023-02-04T03:42:14;98492.41;;;3.86;48.50
70343;BME280;57767;42.068;24.752;2023-02-04T03:43:15;98491.53;;;3.94;48.33
70343;BME280;57767;42.068;24.752;2023-02-04T03:44:17;98501.13;;;4.02;49.01
70343;BME280;57767;42.068;24.752;2023-02-04T03:45:20;98499.75;;;4.14;50.06
70343;BME280;57767;42.068;24.752;2023-02-04T03:46:21;98491.09;;;4.13;49.26
70343;BME280;57767;42.068;24.752;2023-02-04T03:47:26;98494.78;;;4.19;49.52
70343;BME280;57767;42.068;24.752;2023-02-04T03:48:28;98492.28;;;4.25;50.32
70343;BME280;57767;42.068;24.752;2023-02-04T03:49:29;98492.38;;;4.32;50.02
70343;BME280;57767;42.068;24.752;2023-02-04T03:50:32;98488.25;;;4.38;50.48
70343;BME280;57767;42.068;24.752;2023-02-04T03:51:34;98489.25;;;4.37;50.57
70343;BME280;57767;42.068;24.752;2023-02-04T03:52:36;98484.75;;;4.45;49.68
70343;BME280;57767;42.068;24.752;2023-02-04T03:53:38;98487.66;;;4.50;50.76
70343;BME280;57767;42.068;24.752;2023-02-04T03:54:39;98478.66;;;4.53;50.53
70343;BME280;57767;42.068;24.752;2023-02-04T03:55:41;98485.34;;;4.55;49.99
70343;BME280;57767;42.068;24.752;2023-02-04T03:56:43;98484.94;;;4.58;49.55
70343;BME280;57767;42.068;24.752;2023-02-04T03:57:45;98474.66;;;4.57;50.31
70343;BME280;57767;42.068;24.752;2023-02-04T03:58:46;98479.84;;;4.65;50.19
70343;BME280;57767;42.068;24.752;2023-02-04T03:59:48;98468.63;;;4.56;50.68
70343;BME280;57767;42.068;24.752;2023-02-04T04:00:50;98473.13;;;4.48;50.68
70343;BME280;57767;42.068;24.752;2023-02-04T04:01:52;98474.41;;;4.52;50.90
70343;BME280;57767;42.068;24.752;2023-02-04T04:02:54;98466.75;;;4.50;50.54
70343;BME280;57767;42.068;24.752;2023-02-04T04:03:57;98462.22;;;4.44;49.32
70343;BME280;57767;42.068;24.752;2023-02-04T04:04:59;98453.13;;;4.40;48.59
70343;BME280;57767;42.068;24.752;2023-02-04T04:06:01;98462.59;;;4.41;48.65
70343;BME280;57767;42.068;24.752;2023-02-04T04:07:05;98457.34;;;4.41;49.12
70343;BME280;57767;42.068;24.752;2023-02-04T04:08:07;98464.00;;;4.44;49.12
70343;BME280;57767;42.068;24.752;2023-02-04T04:09:09;98460.63;;;4.43;49.31
70343;BME280;57767;42.068;24.752;2023-02-04T04:10:11;98454.03;;;4.47;50.32
70343;BME280;57767;42.068;24.752;2023-02-04T04:11:14;98452.31;;;4.54;50.78
70343;BME280;57767;42.068;24.752;2023-02-04T04:12:15;98451.50;;;4.54;49.98
70343;BME280;57767;42.068;24.752;2023-02-04T04:13:17;98439.78;;;4.50;49.33
70343;BME280;57767;42.068;24.752;2023-02-04T04:14:19;98431.94;;;4.50;50.19
70343;BME280;57767;42.068;24.752;2023-02-04T04:15:21;98436.06;;;4.44;49.81
70343;BME280;57767;42.068;24.752;2023-02-04T04:16:23;98435.97;;;4.38;49.75
70343;BME280;57767;42.068;24.752;2023-02-04T04:17:25;98426.44;;;4.30;49.86
70343;BME280;57767;42.068;24.752;2023-02-04T04:18:26;98425.41;;;4.31;50.66
70343;BME280;57767;42.068;24.752;2023-02-04T04:19:28;98427.03;;;4.32;51.22
70343;BME280;57767;42.068;24.752;2023-02-04T04:20:32;98429.31;;;4.35;51.58
70343;BME280;57767;42.068;24.752;2023-02-04T04:21:34;98418.94;;;4.27;49.98
70343;BME280;57767;42.068;24.752;2023-02-04T04:22:36;98435.97;;;4.38;50.04
70343;BME280;57767;42.068;24.752;2023-02-04T04:23:37;98433.53;;;4.36;49.87
70343;BME280;57767;42.068;24.752;2023-02-04T04:24:40;98423.72;;;4.38;49.99
70343;BME280;57767;42.068;24.752;2023-02-04T04:25:42;98426.00;;;4.41;49.34
70343;BME280;57767;42.068;24.752;2023-02-04T04:26:43;98427.25;;;4.45;50.21
70343;BME280;57767;42.068;24.752;2023-02-04T04:27:45;98428.50;;;4.49;50.53
70343;BME280;57767;42.068;24.752;2023-02-04T04:28:47;98424.63;;;4.45;50.81
70343;BME280;57767;42.068;24.752;2023-02-04T04:29:49;98425.09;;;4.49;50.21
70343;BME280;57767;42.068;24.752;2023-02-04T04:30:50;98416.44;;;4.48;49.74
70343;BME280;57767;42.068;24.752;2023-02-04T04:31:52;98421.75;;;4.40;50.30
70343;BME280;57767;42.068;24.752;2023-02-04T04:32:54;98423.81;;;4.45;49.67
70343;BME280;57767;42.068;24.752;2023-02-04T04:33:56;98415.53;;;4.41;51.09
70343;BME280;57767;42.068;24.752;2023-02-04T04:34:58;98424.00;;;4.43;51.38
70343;BME280;57767;42.068;24.752;2023-02-04T04:35:59;98438.69;;;4.44;51.80
70343;BME280;57767;42.068;24.752;2023-02-04T04:37:01;98436.06;;;4.44;51.81
70343;BME280;57767;42.068;24.752;2023-02-04T04:38:03;98440.69;;;4.42;51.02
70343;BME280;57767;42.068;24.752;2023-02-04T04:39:05;98437.44;;;4.40;50.84
70343;BME280;57767;42.068;24.752;2023-02-04T04:40:10;98434.19;;;4.38;51.45
70343;BME280;57767;42.068;24.752;2023-02-04T04:41:12;98445.09;;;4.42;51.30
70343;BME280;57767;42.068;24.752;2023-02-04T04:42:14;98451.50;;;4.39;50.51
70343;BME280;57767;42.068;24.752;2023-02-04T04:43:16;98447.53;;;4.43;50.76
70343;BME280;57767;42.068;24.752;2023-02-04T04:44:17;98455.72;;;4.40;51.15
70343;BME280;57767;42.068;24.752;2023-02-04T04:45:20;98451.66;;;4.38;50.48
70343;BME280;57767;42.068;24.752;2023-02-04T04:46:21;98447.44;;;4.37;50.82
70343;BME280;57767;42.068;24.752;2023-02-04T04:47:23;98447.44;;;4.37;50.69
70343;BME280;57767;42.068;24.752;2023-02-04T04:48:25;98441.31;;;4.29;50.45
70343;BME280;57767;42.068;24.752;2023-02-04T04:49:27;98434.25;;;4.15;49.99
70343;BME280;57767;42.068;24.752;2023-02-04T04:50:29;98425.28;;;4.10;49.65
70343;BME280;57767;42.068;24.752;2023-02-04T04:51:31;98421.41;;;3.91;50.89
70343;BME280;57767;42.068;24.752;2023-02-04T04:52:33;98409.63;;;3.72;51.35
70343;BME280;57767;42.068;24.752;2023-02-04T04:53:35;98415.41;;;3.59;51.00
70343;BME280;57767;42.068;24.752;2023-02-04T04:54:37;98431.66;;;3.70;51.20
70343;BME280;57767;42.068;24.752;2023-02-04T04:55:39;98435.03;;;3.78;51.52
70343;BME280;57767;42.068;24.752;2023-02-04T04:56:41;98433.50;;;3.84;50.67
70343;BME280;57767;42.068;24.752;2023-02-04T04:57:43;98418.19;;;3.81;51.66
70343;BME280;57767;42.068;24.752;2023-02-04T04:58:44;98412.22;;;3.72;51.48
70343;BME280;57767;42.068;24.752;2023-02-04T04:59:46;98407.59;;;3.59;52.23
70343;BME280;57767;42.068;24.752;2023-02-04T05:00:48;98404.50;;;3.56;51.89
70343;BME280;57767;42.068;24.752;2023-02-04T05:01:50;98418.78;;;3.68;51.67
70343;BME280;57767;42.068;24.752;2023-02-04T05:02:51;98414.03;;;3.72;52.39
70343;BME280;57767;42.068;24.752;2023-02-04T05:03:53;98415.94;;;3.78;53.12
70343;BME280;57767;42.068;24.752;2023-02-04T05:04:55;98410.34;;;3.81;53.09
70343;BME280;57767;42.068;24.752;2023-02-04T05:05:56;98405.34;;;3.79;53.07
70343;BME280;57767;42.068;24.752;2023-02-04T05:06:58;98403.81;;;3.85;53.14
70343;BME280;57767;42.068;24.752;2023-02-04T05:08:00;98406.06;;;3.88;53.27
70343;BME280;57767;42.068;24.752;2023-02-04T05:09:02;98400.31;;;3.92;52.63
70343;BME280;57767;42.068;24.752;2023-02-04T05:10:04;98393.28;;;3.93;53.75
70343;BME280;57767;42.068;24.752;2023-02-04T05:11:06;98405.66;;;3.99;52.61
70343;BME280;57767;42.068;24.752;2023-02-04T05:12:08;98386.25;;;3.93;53.70
70343;BME280;57767;42.068;24.752;2023-02-04T05:13:10;98405.72;;;4.06;54.22
70343;BME280;57767;42.068;24.752;2023-02-04T05:14:11;98395.03;;;4.01;54.28
70343;BME280;57767;42.068;24.752;2023-02-04T05:15:13;98402.25;;;4.13;53.98
70343;BME280;57767;42.068;24.752;2023-02-04T05:16:15;98399.47;;;4.15;54.15
70343;BME280;57767;42.068;24.752;2023-02-04T05:17:18;98397.84;;;4.14;53.63
70343;BME280;57767;42.068;24.752;2023-02-04T05:18:20;98400.72;;;4.19;54.23
70343;BME280;57767;42.068;24.752;2023-02-04T05:19:22;98405.59;;;4.22;54.78
70343;BME280;57767;42.068;24.752;2023-02-04T05:20:24;98407.84;;;4.25;54.51
70343;BME280;57767;42.068;24.752;2023-02-04T05:21:26;98384.94;;;4.12;54.89
70343;BME280;57767;42.068;24.752;2023-02-04T05:22:27;98399.13;;;4.18;54.89
70343;BME280;57767;42.068;24.752;2023-02-04T05:23:29;98398.66;;;4.14;55.65
70343;BME280;57767;42.068;24.752;2023-02-04T05:24:31;98404.22;;;4.11;55.44
70343;BME280;57767;42.068;24.752;2023-02-04T05:25:33;98388.63;;;4.03;55.54
70343;BME280;57767;42.068;24.752;2023-02-04T05:26:34;98389.50;;;3.95;57.65
70343;BME280;57767;42.068;24.752;2023-02-04T05:27:36;98392.84;;;3.89;58.20
70343;BME280;57767;42.068;24.752;2023-02-04T05:28:38;98388.50;;;3.96;57.47
70343;BME280;57767;42.068;24.752;2023-02-04T05:29:40;98388.16;;;4.00;58.67
70343;BME280;57767;42.068;24.752;2023-02-04T05:30:41;98389.88;;;4.07;57.97
70343;BME280;57767;42.068;24.752;2023-02-04T05:31:43;98377.19;;;4.04;58.42
70343;BME280;57767;42.068;24.752;2023-02-04T05:32:45;98402.34;;;4.20;57.69